createdAt,value
2019-03-27T00:01:59.103Z,1030.6
2019-03-27T00:06:59.178Z,1030.6
2019-03-27T00:11:59.104Z,1030.6
2019-03-27T00:16:59.145Z,1030.6
2019-03-27T00:21:59.270Z,1030.5
2019-03-27T00:26:59.092Z,1030.5
2019-03-27T00:31:58.999Z,1030.4
2019-03-27T00:36:59.189Z,1030.4
2019-03-27T00:41:59.242Z,1030.4
2019-03-27T00:46:59.134Z,1030.4
2019-03-27T00:51:59.083Z,1030.3
2019-03-27T00:56:59.230Z,1030.4
2019-03-27T01:01:59.116Z,1030.3
2019-03-27T01:06:59.175Z,1030.4
2019-03-27T01:11:59.226Z,1030.4
2019-03-27T01:16:59.139Z,1030.5
2019-03-27T01:21:59.016Z,1030.5
2019-03-27T01:26:59.136Z,1030.6
2019-03-27T01:31:59.161Z,1030.6
2019-03-27T01:36:59.176Z,1030.6
2019-03-27T01:41:59.238Z,1030.6
2019-03-27T01:46:59.151Z,1030.7
2019-03-27T01:51:59.048Z,1030.6
2019-03-27T01:56:59.136Z,1030.7
2019-03-27T02:01:59.147Z,1030.7
2019-03-27T02:06:59.172Z,1030.7
2019-03-27T02:11:59.197Z,1030.7
2019-03-27T02:16:59.250Z,1030.7
2019-03-27T02:21:59.174Z,1030.8
2019-03-27T02:26:59.213Z,1030.9
2019-03-27T02:31:59.225Z,1030.9
2019-03-27T02:36:59.038Z,1031
2019-03-27T02:41:59.046Z,1030.9
2019-03-27T02:46:59.061Z,1030.9
2019-03-27T02:51:59.294Z,1031
2019-03-27T02:56:59.204Z,1031
2019-03-27T03:01:59.045Z,1031
2019-03-27T03:06:59.049Z,1031
2019-03-27T03:11:59.200Z,1031.1
2019-03-27T03:16:59.231Z,1031.1
2019-03-27T03:21:59.159Z,1031
2019-03-27T03:26:59.031Z,1031
2019-03-27T03:31:59.211Z,1031.1
2019-03-27T03:36:59.276Z,1031.1
2019-03-27T03:41:59.142Z,1031.1
2019-03-27T03:47:01.068Z,1031.3
2019-03-27T03:51:59.225Z,1031.3
2019-03-27T03:57:01.125Z,1031.4
2019-03-27T04:02:01.277Z,1031.3
2019-03-27T04:07:01.337Z,1031.4
2019-03-27T04:12:01.358Z,1031.4
2019-03-27T04:17:18.304Z,1031.4
2019-03-27T04:22:01.305Z,1031.4
2019-03-27T04:27:01.360Z,1031.4
2019-03-27T04:32:01.159Z,1031.3
2019-03-27T04:37:01.408Z,1031.4
2019-03-27T04:42:01.170Z,1031.5
2019-03-27T04:47:01.558Z,1031.4
2019-03-27T04:52:01.299Z,1031.5
2019-03-27T04:57:01.168Z,1031.6
2019-03-27T05:02:01.181Z,1031.6
2019-03-27T05:07:01.413Z,1031.6
2019-03-27T05:12:01.339Z,1031.7
2019-03-27T05:17:01.168Z,1031.7
2019-03-27T05:22:01.178Z,1031.7
2019-03-27T05:27:01.192Z,1031.8
2019-03-27T05:32:01.390Z,1031.8
2019-03-27T05:37:01.423Z,1031.9
2019-03-27T05:42:01.348Z,1031.8
2019-03-27T05:47:01.396Z,1031.9
2019-03-27T05:52:01.426Z,1032
2019-03-27T05:57:01.341Z,1032
2019-03-27T06:02:01.333Z,1032
2019-03-27T06:07:01.428Z,1032.1
2019-03-27T06:12:01.189Z,1032
2019-03-27T06:17:01.350Z,1032.2
2019-03-27T06:22:04.393Z,1032.2
2019-03-27T06:27:01.339Z,1032.2
2019-03-27T06:32:01.367Z,1032.2
2019-03-27T06:37:01.228Z,1032.3
2019-03-27T06:42:01.346Z,1032.4
2019-03-27T06:47:01.391Z,1032.4
2019-03-27T06:52:01.444Z,1032.4
2019-03-27T06:57:01.741Z,1032.4
2019-03-27T07:02:01.389Z,1032.5
2019-03-27T07:07:01.450Z,1032.5
2019-03-27T07:12:01.362Z,1032.5
2019-03-27T07:17:01.384Z,1032.5
2019-03-27T07:22:01.418Z,1032.6
2019-03-27T07:27:01.259Z,1032.6
2019-03-27T07:32:01.480Z,1032.7
2019-03-27T07:37:01.209Z,1032.7
2019-03-27T07:42:01.472Z,1032.8
2019-03-27T07:47:01.275Z,1032.9
2019-03-27T07:52:01.413Z,1032.9
2019-03-27T07:57:01.560Z,1032.9
2019-03-27T08:02:01.402Z,1033
2019-03-27T08:07:01.419Z,1033
2019-03-27T08:12:01.351Z,1032.9
2019-03-27T08:17:01.526Z,1033
2019-03-27T08:22:01.378Z,1033
2019-03-27T08:27:01.469Z,1033
2019-03-27T08:32:01.503Z,1033
2019-03-27T08:37:01.424Z,1033
2019-03-27T08:42:01.483Z,1033
2019-03-27T08:47:01.299Z,1033
2019-03-27T08:52:01.293Z,1033.1
2019-03-27T08:57:01.444Z,1033.1
2019-03-27T09:02:01.492Z,1033.2
2019-03-27T09:07:01.572Z,1033.1
2019-03-27T09:12:01.355Z,1033.3
2019-03-27T09:17:01.494Z,1033.3
2019-03-27T09:22:01.303Z,1033.3
2019-03-27T09:27:01.304Z,1033.3
2019-03-27T09:32:01.499Z,1033.3
2019-03-27T09:37:01.296Z,1033.4
2019-03-27T09:42:02.708Z,1033.5
2019-03-27T09:47:01.486Z,1033.4
2019-03-27T09:52:01.487Z,1033.5
2019-03-27T09:57:01.454Z,1033.5
2019-03-27T10:02:01.489Z,1033.5
2019-03-27T10:07:01.464Z,1033.5
2019-03-27T10:12:01.583Z,1033.5
2019-03-27T10:17:01.503Z,1033.4
2019-03-27T10:22:01.317Z,1033.3
2019-03-27T10:27:01.594Z,1033.4
2019-03-27T10:32:01.501Z,1033.3
2019-03-27T10:37:01.535Z,1033.3
2019-03-27T10:42:01.570Z,1033.2
2019-03-27T10:47:01.498Z,1033.2
2019-03-27T10:52:01.542Z,1033.2
2019-03-27T10:57:01.562Z,1033.2
2019-03-27T11:02:01.360Z,1033.1
2019-03-27T11:07:01.531Z,1033
2019-03-27T11:12:04.672Z,1033
2019-03-27T11:17:01.338Z,1033
2019-03-27T11:22:01.540Z,1033
2019-03-27T11:27:01.608Z,1032.8
2019-03-27T11:32:01.525Z,1032.7
2019-03-27T11:37:01.534Z,1032.7
2019-03-27T11:42:01.497Z,1032.9
2019-03-27T11:47:01.510Z,1032.9
2019-03-27T11:52:01.530Z,1032.8
2019-03-27T11:57:01.496Z,1032.9
2019-03-27T12:02:01.618Z,1033
2019-03-27T12:07:01.562Z,1033.1
2019-03-27T12:12:01.611Z,1033
2019-03-27T12:17:01.630Z,1033
2019-03-27T12:22:01.546Z,1032.9
2019-03-27T12:27:01.600Z,1033
2019-03-27T12:32:01.619Z,1032.9
2019-03-27T12:37:01.522Z,1033
2019-03-27T12:42:01.396Z,1032.9
2019-03-27T12:47:01.623Z,1033
2019-03-27T12:52:01.550Z,1033
2019-03-27T12:57:02.623Z,1033
2019-03-27T13:02:01.611Z,1032.9
2019-03-27T13:07:01.419Z,1032.9
2019-03-27T13:12:01.412Z,1032.9
2019-03-27T13:17:01.612Z,1032.9
2019-03-27T13:22:01.667Z,1032.9
2019-03-27T13:27:01.571Z,1032.9
2019-03-27T13:32:01.449Z,1032.8
2019-03-27T13:37:01.654Z,1032.9
2019-03-27T13:42:01.429Z,1032.8
2019-03-27T13:47:01.994Z,1032.8
2019-03-27T13:52:01.665Z,1032.8
2019-03-27T13:57:01.693Z,1032.8
2019-03-27T14:02:01.505Z,1032.8
2019-03-27T14:07:01.447Z,1032.8
2019-03-27T14:12:01.475Z,1032.7
2019-03-27T14:17:01.568Z,1032.7
2019-03-27T14:22:02.664Z,1032.6
2019-03-27T14:27:01.680Z,1032.7
2019-03-27T14:32:01.617Z,1032.7
2019-03-27T14:37:01.464Z,1032.7
2019-03-27T14:42:01.522Z,1032.7
2019-03-27T14:47:01.606Z,1032.7
2019-03-27T14:52:08.961Z,1032.6
2019-03-27T14:57:01.993Z,1032.6
2019-03-27T15:02:01.619Z,1032.6
2019-03-27T15:07:01.644Z,1032.6
2019-03-27T15:12:01.482Z,1032.5
2019-03-27T15:17:01.724Z,1032.6
2019-03-27T15:22:01.449Z,1032.6
2019-03-27T15:27:01.503Z,1032.5
2019-03-27T15:32:01.492Z,1032.5
2019-03-27T15:37:01.655Z,1032.6
2019-03-27T15:42:01.493Z,1032.6
2019-03-27T15:47:02.760Z,1032.7
2019-03-27T15:52:01.528Z,1032.8
2019-03-27T15:57:01.581Z,1032.7
2019-03-27T16:02:01.632Z,1032.8
2019-03-27T16:07:01.758Z,1032.8
2019-03-27T16:12:01.506Z,1032.8
2019-03-27T16:17:14.460Z,1032.8
2019-03-27T16:22:01.656Z,1032.8
2019-03-27T16:27:05.416Z,1032.7
2019-03-27T16:32:01.730Z,1032.8
2019-03-27T16:37:01.798Z,1032.9
2019-03-27T16:42:01.521Z,1032.9
2019-03-27T16:47:01.535Z,1033
2019-03-27T16:52:01.539Z,1033
2019-03-27T16:57:01.689Z,1033
2019-03-27T17:02:01.541Z,1033.1
2019-03-27T17:07:01.560Z,1033.1
2019-03-27T17:12:01.695Z,1033.2
2019-03-27T17:17:01.545Z,1033.3
2019-03-27T17:22:01.539Z,1033.3
2019-03-27T17:27:04.560Z,1033.3
2019-03-27T17:32:01.540Z,1033.3
2019-03-27T17:37:01.763Z,1033.4
2019-03-27T17:42:01.569Z,1033.5
2019-03-27T17:47:01.584Z,1033.6
2019-03-27T17:52:05.555Z,1033.6
2019-03-27T17:57:01.582Z,1033.7
2019-03-27T18:02:01.605Z,1033.7
2019-03-27T18:07:01.571Z,1033.7
2019-03-27T18:12:01.564Z,1033.7
2019-03-27T18:17:01.591Z,1033.8
2019-03-27T18:22:08.487Z,1033.9
2019-03-27T18:27:01.627Z,1033.8
2019-03-27T18:32:01.585Z,1033.9
2019-03-27T18:37:01.599Z,1034.1
2019-03-27T18:42:01.625Z,1034.1
2019-03-27T18:47:04.281Z,1034.3
2019-03-27T18:52:04.292Z,1034.3
2019-03-27T18:57:01.622Z,1034.3
2019-03-27T19:02:01.555Z,1034.4
2019-03-27T19:07:01.620Z,1034.4
2019-03-27T19:12:01.985Z,1034.4
2019-03-27T19:17:01.620Z,1034.4
2019-03-27T19:22:01.612Z,1034.4
2019-03-27T19:27:01.780Z,1034.4
2019-03-27T19:32:04.305Z,1034.4
2019-03-27T19:37:01.665Z,1034.5
2019-03-27T19:42:02.002Z,1034.5
2019-03-27T19:47:01.744Z,1034.5
2019-03-27T19:52:02.114Z,1034.4
2019-03-27T19:57:01.659Z,1034.5
2019-03-27T20:02:01.713Z,1034.5
2019-03-27T20:07:06.124Z,1034.6
2019-03-27T20:12:01.740Z,1034.6
2019-03-27T20:17:01.860Z,1034.6
2019-03-27T20:22:01.820Z,1034.6
2019-03-27T20:27:02.433Z,1034.6
2019-03-27T20:32:01.825Z,1034.7
2019-03-27T20:37:02.452Z,1034.7
2019-03-27T20:42:01.701Z,1034.7
2019-03-27T20:47:02.132Z,1034.7
2019-03-27T20:52:04.579Z,1034.7
2019-03-27T20:57:01.757Z,1034.6
2019-03-27T21:02:01.768Z,1034.7
2019-03-27T21:07:01.697Z,1034.7
2019-03-27T21:12:01.733Z,1034.8
2019-03-27T21:17:01.773Z,1034.8
2019-03-27T21:22:01.737Z,1034.8
2019-03-27T21:27:02.775Z,1034.8
2019-03-27T21:32:02.073Z,1034.8
2019-03-27T21:37:01.713Z,1034.9
2019-03-27T21:42:01.909Z,1034.8
2019-03-27T21:47:01.685Z,1034.9
2019-03-27T21:52:02.008Z,1034.9
2019-03-27T21:57:02.004Z,1034.9
2019-03-27T22:02:01.863Z,1034.9
2019-03-27T22:07:01.719Z,1034.9
2019-03-27T22:12:01.632Z,1034.9
2019-03-27T22:17:01.839Z,1034.9
2019-03-27T22:22:01.845Z,1034.9
2019-03-27T22:27:01.951Z,1034.9
2019-03-27T22:32:01.848Z,1034.9
2019-03-27T22:37:01.698Z,1034.8
2019-03-27T22:42:01.799Z,1034.8
2019-03-27T22:47:01.833Z,1034.9
2019-03-27T22:52:01.769Z,1034.9
2019-03-27T22:57:01.915Z,1034.9
2019-03-27T23:02:01.718Z,1034.9
2019-03-27T23:07:01.849Z,1034.9
2019-03-27T23:12:01.721Z,1034.9
2019-03-27T23:17:01.873Z,1034.9
2019-03-27T23:22:01.780Z,1034.9
2019-03-27T23:27:01.868Z,1034.9
2019-03-27T23:32:01.813Z,1034.9
2019-03-27T23:37:01.747Z,1034.9
2019-03-27T23:42:01.740Z,1034.9
2019-03-27T23:47:01.938Z,1035
2019-03-27T23:52:01.895Z,1035
2019-03-27T23:57:01.741Z,1035
